Ralston, Iowa
Current Conditions -  °F | °C
As of 9:55 AM on Wednesday 28 Jan 2015 (Local Time) from KCIN Reporting Station
Haze Haze  
Wind Chill: 20°   Ceiling: Unl
Heat Index: 32°   Visibility: 4mi
Dew Point: 30°   Wind: 18mph
Humidity: 93%   Direction: 140°SE
Pressure: 29.86"   Gusts: 25mph
Location:  42.04°N, 94.63°W
Report Text: KCIN 281555Z AUTO 14016G22KT 4SM BR SCT008 00/M01 A2986 RMK AO2
Loading
Personal Weather Stations






























Interactive Weather Map New forecast layout! Learn more

10-Day Weather Forecast

Advertisements
Track Severe Weather on mobile